createdAt,value
2022-11-01T00:01:24.288Z,99.90
2022-11-01T00:03:50.991Z,99.90
2022-11-01T00:06:17.589Z,99.90
2022-11-01T00:08:44.252Z,99.90
2022-11-01T00:11:12.540Z,99.90
2022-11-01T00:13:39.200Z,99.90
2022-11-01T00:16:06.274Z,99.90
2022-11-01T00:18:32.860Z,99.90
2022-11-01T00:20:59.631Z,99.90
2022-11-01T00:23:26.220Z,99.90
2022-11-01T00:25:52.853Z,99.90
2022-11-01T00:28:19.424Z,99.90
2022-11-01T00:30:46.141Z,99.90
2022-11-01T00:33:12.730Z,99.90
2022-11-01T00:35:39.397Z,99.90
2022-11-01T00:38:06.260Z,99.90
2022-11-01T00:40:33.110Z,99.90
2022-11-01T00:42:59.775Z,99.90
2022-11-01T00:45:26.386Z,99.90
2022-11-01T00:47:53.017Z,99.90
2022-11-01T00:50:19.653Z,99.90
2022-11-01T00:52:46.326Z,99.90
2022-11-01T00:55:12.956Z,99.90
2022-11-01T00:57:39.668Z,99.90
2022-11-01T01:00:06.834Z,99.90
2022-11-01T01:02:33.508Z,99.90
2022-11-01T01:05:00.150Z,99.90
2022-11-01T01:07:26.785Z,99.90
2022-11-01T01:09:53.586Z,99.90
2022-11-01T01:12:20.217Z,99.90
2022-11-01T01:14:46.873Z,99.90
2022-11-01T01:17:13.563Z,99.90
2022-11-01T01:19:40.359Z,99.90
2022-11-01T01:22:07.040Z,99.90
2022-11-01T01:24:34.047Z,99.90
2022-11-01T01:27:00.722Z,99.90
2022-11-01T01:29:27.365Z,99.90
2022-11-01T01:31:54.102Z,99.90
2022-11-01T01:34:20.870Z,99.90
2022-11-01T01:36:47.806Z,99.90
2022-11-01T01:39:15.579Z,99.90
2022-11-01T01:41:57.460Z,99.90
2022-11-01T01:44:44.964Z,99.90
2022-11-01T01:47:14.136Z,99.90
2022-11-01T01:49:42.702Z,99.90
2022-11-01T01:52:12.722Z,99.90
2022-11-01T01:54:39.360Z,99.90
2022-11-01T01:57:06.095Z,99.90
2022-11-01T01:59:32.811Z,99.90
2022-11-01T02:02:00.173Z,99.90
2022-11-01T02:04:29.977Z,99.90
2022-11-01T02:06:58.029Z,99.90
2022-11-01T02:09:28.102Z,99.90
2022-11-01T02:11:57.668Z,99.90
2022-11-01T02:14:25.472Z,99.90
2022-11-01T02:16:55.288Z,99.90
2022-11-01T02:19:40.550Z,99.90
2022-11-01T02:22:10.905Z,99.90
2022-11-01T02:24:56.214Z,99.90
2022-11-01T02:27:22.859Z,99.90
2022-11-01T02:30:07.885Z,99.90
2022-11-01T02:32:34.463Z,99.90
2022-11-01T02:35:15.797Z,99.90
2022-11-01T02:37:46.991Z,99.90
2022-11-01T02:40:42.738Z,99.90
2022-11-01T02:43:35.374Z,99.90
2022-11-01T02:46:23.122Z,99.90
2022-11-01T02:48:49.931Z,99.90
2022-11-01T02:51:18.429Z,99.90
2022-11-01T02:53:45.000Z,99.90
2022-11-01T02:56:11.834Z,99.90
2022-11-01T02:58:39.280Z,99.90
2022-11-01T03:01:15.795Z,99.90
2022-11-01T03:03:45.240Z,99.90
2022-11-01T03:06:50.415Z,99.90
2022-11-01T03:09:17.036Z,99.90
2022-11-01T03:11:43.711Z,99.90
2022-11-01T03:14:10.305Z,99.90
2022-11-01T03:16:39.908Z,99.90
2022-11-01T03:19:06.528Z,99.90
2022-11-01T03:21:47.103Z,99.90
2022-11-01T03:24:16.626Z,99.90
2022-11-01T03:26:43.769Z,99.90
2022-11-01T03:29:11.809Z,99.90
2022-11-01T03:31:39.495Z,99.90
2022-11-01T03:34:08.744Z,99.90
2022-11-01T03:36:38.514Z,99.90
2022-11-01T03:39:08.670Z,99.90
2022-11-01T03:41:37.769Z,99.90
2022-11-01T03:44:04.847Z,99.90
2022-11-01T03:46:31.584Z,99.90
2022-11-01T03:48:58.255Z,99.90
2022-11-01T03:51:24.903Z,99.90
2022-11-01T03:53:51.517Z,99.90
2022-11-01T03:56:18.285Z,99.90
2022-11-01T03:58:46.010Z,99.90
2022-11-01T04:01:14.080Z,99.90
2022-11-01T04:03:41.145Z,99.90
2022-11-01T04:06:07.918Z,99.90
2022-11-01T04:08:34.629Z,99.90
2022-11-01T04:11:01.302Z,99.90
2022-11-01T04:13:27.897Z,99.90
2022-11-01T04:16:13.331Z,99.90
2022-11-01T04:18:58.776Z,99.90
2022-11-01T04:21:26.218Z,99.90
2022-11-01T04:23:52.883Z,99.90
2022-11-01T04:26:21.137Z,99.90
2022-11-01T04:28:57.127Z,99.90
2022-11-01T04:31:31.624Z,99.90
2022-11-01T04:33:59.057Z,99.90
2022-11-01T04:36:25.833Z,99.90
2022-11-01T04:38:55.693Z,99.90
2022-11-01T04:41:23.121Z,99.90
2022-11-01T04:43:49.975Z,99.90
2022-11-01T04:46:16.626Z,99.90
2022-11-01T04:48:43.235Z,99.90
2022-11-01T04:51:09.953Z,99.90
2022-11-01T04:53:36.864Z,99.90
2022-11-01T04:56:04.188Z,99.90
2022-11-01T04:58:30.850Z,99.90
2022-11-01T05:00:57.705Z,99.90
2022-11-01T05:03:24.344Z,99.90
2022-11-01T05:05:50.955Z,99.90
2022-11-01T05:08:17.662Z,99.90
2022-11-01T05:10:44.664Z,99.90
2022-11-01T05:13:12.234Z,99.90
2022-11-01T05:15:40.196Z,99.90
2022-11-01T05:18:14.799Z,99.90
2022-11-01T05:20:41.433Z,99.90
2022-11-01T05:23:08.800Z,99.90
2022-11-01T05:25:38.062Z,99.90
2022-11-01T05:28:10.750Z,99.90
2022-11-01T05:30:37.791Z,99.90
2022-11-01T05:33:05.760Z,99.90
2022-11-01T05:35:33.023Z,99.90
2022-11-01T05:38:01.242Z,99.90
2022-11-01T05:40:28.369Z,99.90
2022-11-01T05:42:55.005Z,99.90
2022-11-01T05:45:21.602Z,99.90
2022-11-01T05:47:48.217Z,99.90
2022-11-01T05:50:15.790Z,99.90
2022-11-01T05:52:43.100Z,99.90
2022-11-01T05:55:10.167Z,99.90
2022-11-01T05:57:36.851Z,99.90
2022-11-01T06:00:04.486Z,99.90
2022-11-01T06:02:31.901Z,99.90
2022-11-01T06:05:02.649Z,99.90
2022-11-01T06:07:29.744Z,99.90
2022-11-01T06:09:56.409Z,99.90
2022-11-01T06:12:23.546Z,99.90
2022-11-01T06:14:50.292Z,99.90
2022-11-01T06:17:17.102Z,99.90
2022-11-01T06:19:43.702Z,99.90
2022-11-01T06:22:10.336Z,99.90
2022-11-01T06:24:36.925Z,99.90
2022-11-01T06:27:04.685Z,99.90
2022-11-01T06:29:32.992Z,99.90
2022-11-01T06:31:59.659Z,99.90
2022-11-01T06:34:26.237Z,99.90
2022-11-01T06:36:52.860Z,99.90
2022-11-01T06:39:19.453Z,99.90
2022-11-01T06:41:46.146Z,99.90
2022-11-01T06:44:12.763Z,99.90
2022-11-01T06:46:39.343Z,99.90
2022-11-01T06:49:05.997Z,99.90
2022-11-01T06:51:32.593Z,99.90
2022-11-01T06:53:59.253Z,99.90
2022-11-01T06:56:26.036Z,99.90
2022-11-01T06:58:52.721Z,99.90
2022-11-01T07:01:21.593Z,99.90
2022-11-01T07:03:51.978Z,99.90
2022-11-01T07:06:18.893Z,99.90
2022-11-01T07:08:45.550Z,99.90
2022-11-01T07:11:12.224Z,99.90
2022-11-01T07:13:38.909Z,99.90
2022-11-01T07:16:05.721Z,99.90
2022-11-01T07:18:32.555Z,99.90
2022-11-01T07:21:02.121Z,99.90
2022-11-01T07:23:29.464Z,99.90
2022-11-01T07:25:56.335Z,99.90
2022-11-01T07:28:23.342Z,99.90
2022-11-01T07:30:50.652Z,99.90
2022-11-01T07:33:17.523Z,99.90
2022-11-01T07:35:44.515Z,99.90
2022-11-01T07:38:13.113Z,99.90
2022-11-01T07:40:40.621Z,99.90
2022-11-01T07:43:07.594Z,99.90
2022-11-01T07:45:34.777Z,99.90
2022-11-01T07:48:03.260Z,99.90
2022-11-01T07:50:30.446Z,99.90
2022-11-01T07:53:04.480Z,99.90
2022-11-01T07:55:31.404Z,99.90
2022-11-01T07:57:58.122Z,99.90
2022-11-01T08:00:24.950Z,99.90
2022-11-01T08:02:51.723Z,99.90
2022-11-01T08:05:18.455Z,99.90
2022-11-01T08:07:45.149Z,99.90
2022-11-01T08:10:12.158Z,99.90
2022-11-01T08:12:38.801Z,99.90
2022-11-01T08:15:05.751Z,99.90
2022-11-01T08:17:35.339Z,99.90
2022-11-01T08:20:02.095Z,99.90
2022-11-01T08:22:28.719Z,99.90
2022-11-01T08:24:55.549Z,99.90
2022-11-01T08:27:22.161Z,99.90
2022-11-01T08:29:48.871Z,99.90
2022-11-01T08:32:19.531Z,99.90
2022-11-01T08:34:46.109Z,99.90
2022-11-01T08:37:13.230Z,99.90
2022-11-01T08:39:39.848Z,99.90
2022-11-01T08:42:06.592Z,99.90
2022-11-01T08:44:34.577Z,99.90
2022-11-01T08:47:01.752Z,99.90
2022-11-01T08:49:28.648Z,99.90
2022-11-01T08:51:55.855Z,99.90
2022-11-01T08:54:22.630Z,99.90
2022-11-01T08:56:49.302Z,99.90
2022-11-01T08:59:16.018Z,99.90
2022-11-01T09:01:42.781Z,99.90
2022-11-01T09:04:09.609Z,99.90
2022-11-01T09:06:36.611Z,99.90
2022-11-01T09:09:03.785Z,99.90
2022-11-01T09:11:31.108Z,99.90
2022-11-01T09:14:01.322Z,99.90
2022-11-01T09:16:28.163Z,99.90
2022-11-01T09:18:54.996Z,99.90
2022-11-01T09:21:21.577Z,99.90
2022-11-01T09:23:48.230Z,99.90
2022-11-01T09:26:14.941Z,99.90
2022-11-01T09:28:41.698Z,99.90
2022-11-01T09:31:25.895Z,99.90
2022-11-01T09:33:57.078Z,99.90
2022-11-01T09:36:27.794Z,99.90
2022-11-01T09:38:54.858Z,99.90
2022-11-01T09:41:24.249Z,99.90
2022-11-01T09:43:52.057Z,99.90
2022-11-01T09:48:50.756Z,99.90
2022-11-01T09:51:20.353Z,99.90
2022-11-01T09:53:48.526Z,99.90
2022-11-01T09:56:18.983Z,99.90
2022-11-01T09:59:02.210Z,99.90
2022-11-01T10:01:47.808Z,99.90
2022-11-01T10:04:27.650Z,99.90
2022-11-01T10:06:54.222Z,99.90
2022-11-01T10:09:29.856Z,99.90
2022-11-01T10:12:19.378Z,99.90
2022-11-01T10:15:04.800Z,99.90
2022-11-01T10:17:37.219Z,99.90
2022-11-01T10:20:04.577Z,98.40
2022-11-01T10:22:34.059Z,96.90
2022-11-01T10:25:19.403Z,95.30
2022-11-01T10:28:04.646Z,94.60
2022-11-01T10:30:36.495Z,94.00
2022-11-01T10:33:06.567Z,94.90
2022-11-01T10:35:59.609Z,95.10
2022-11-01T10:39:04.585Z,95.20
2022-11-01T10:41:24.292Z,95.20
2022-11-01T10:43:55.337Z,95.60
2022-11-01T10:46:24.291Z,95.70
2022-11-01T10:48:53.620Z,95.40
2022-11-01T10:51:26.739Z,96.10
2022-11-01T10:53:57.237Z,96.60
2022-11-01T10:56:44.728Z,96.90
2022-11-01T10:59:20.381Z,96.70
2022-11-01T11:01:49.048Z,95.60
2022-11-01T11:04:16.760Z,97.00
2022-11-01T11:06:43.660Z,97.50
2022-11-01T11:09:22.322Z,98.20
2022-11-01T11:11:49.788Z,98.60
2022-11-01T11:14:17.659Z,98.40
2022-11-01T11:16:46.586Z,98.50
2022-11-01T11:19:16.298Z,98.60
2022-11-01T11:21:43.781Z,98.50
2022-11-01T11:24:21.381Z,97.90
2022-11-01T11:26:53.211Z,98.40
2022-11-01T11:29:24.005Z,98.40
2022-11-01T11:31:55.748Z,98.70
2022-11-01T11:34:24.913Z,98.40
2022-11-01T11:36:54.920Z,98.50
2022-11-01T11:39:29.208Z,98.70
2022-11-01T11:42:10.267Z,99.10
2022-11-01T11:44:44.697Z,99.10
2022-11-01T11:47:20.666Z,99.20
2022-11-01T11:49:48.465Z,99.00
2022-11-01T11:52:17.278Z,99.00
2022-11-01T11:54:44.311Z,99.40
2022-11-01T11:57:14.552Z,98.80
2022-11-01T11:59:42.045Z,98.40
2022-11-01T12:02:20.896Z,98.50
2022-11-01T12:04:52.849Z,98.20
2022-11-01T12:07:27.674Z,98.40
2022-11-01T12:09:55.567Z,99.20
2022-11-01T12:12:24.970Z,98.20
2022-11-01T12:14:52.211Z,98.40
2022-11-01T12:17:26.304Z,98.40
2022-11-01T12:20:07.843Z,97.80
2022-11-01T12:22:34.943Z,97.60
2022-11-01T12:25:06.525Z,97.90
2022-11-01T12:27:35.062Z,97.90
2022-11-01T12:30:05.384Z,97.50
2022-11-01T12:33:02.588Z,97.50
2022-11-01T12:35:30.994Z,97.40
2022-11-01T12:37:57.552Z,97.30
2022-11-01T12:40:26.928Z,97.20
2022-11-01T12:43:04.103Z,97.20
2022-11-01T12:45:43.757Z,97.50
2022-11-01T12:48:14.195Z,97.20
2022-11-01T12:50:49.528Z,97.00
2022-11-01T12:53:34.902Z,97.70
2022-11-01T12:56:01.622Z,97.90
2022-11-01T12:58:33.487Z,97.30
2022-11-01T13:01:14.037Z,97.40
2022-11-01T13:04:01.491Z,97.00
2022-11-01T13:06:39.985Z,97.00
2022-11-01T13:09:18.615Z,97.10
2022-11-01T13:11:54.402Z,97.00
2022-11-01T13:14:39.702Z,97.30
2022-11-01T13:17:25.279Z,96.60
2022-11-01T13:20:05.583Z,96.40
2022-11-01T13:22:41.067Z,96.10
2022-11-01T13:25:30.181Z,96.00
2022-11-01T13:28:02.877Z,96.20
2022-11-01T13:30:30.315Z,96.90
2022-11-01T13:33:19.205Z,97.10
2022-11-01T13:35:57.111Z,96.80
2022-11-01T13:38:24.081Z,97.00
2022-11-01T13:40:50.904Z,97.20
2022-11-01T13:43:22.382Z,96.90
2022-11-01T13:45:54.841Z,97.10
2022-11-01T13:48:39.629Z,96.90
2022-11-01T13:51:12.196Z,97.10
2022-11-01T13:53:47.264Z,97.10
2022-11-01T13:56:19.313Z,97.20
2022-11-01T13:58:46.333Z,97.20
2022-11-01T14:01:30.683Z,97.50
2022-11-01T14:04:15.984Z,98.00
2022-11-01T14:07:05.000Z,98.30
2022-11-01T14:09:32.473Z,98.50
2022-11-01T14:12:05.092Z,98.60
2022-11-01T14:14:31.746Z,98.70
2022-11-01T14:17:17.333Z,98.80
2022-11-01T14:19:44.213Z,98.90
2022-11-01T14:22:24.080Z,98.90
2022-11-01T14:24:53.823Z,99.10
2022-11-01T14:27:32.477Z,99.00
2022-11-01T14:29:59.265Z,99.20
2022-11-01T14:32:27.734Z,99.30
2022-11-01T14:35:14.627Z,99.40
2022-11-01T14:37:49.824Z,99.40
2022-11-01T14:40:35.309Z,99.60
2022-11-01T14:43:10.636Z,99.60
2022-11-01T14:45:40.859Z,99.80
2022-11-01T14:48:17.109Z,99.90
2022-11-01T14:50:46.591Z,99.90
2022-11-01T14:53:17.759Z,99.90
2022-11-01T14:55:44.365Z,99.90
2022-11-01T14:58:21.560Z,99.90
2022-11-01T15:00:50.225Z,99.90
2022-11-01T15:03:17.533Z,99.90
2022-11-01T15:05:45.529Z,99.90
2022-11-01T15:08:20.525Z,99.90
2022-11-01T15:10:47.276Z,99.90
2022-11-01T15:13:15.654Z,99.90
2022-11-01T15:15:42.314Z,99.90
2022-11-01T15:18:15.855Z,99.90
2022-11-01T15:20:46.847Z,99.90
2022-11-01T15:23:17.762Z,99.90
2022-11-01T15:25:50.486Z,99.90
2022-11-01T15:28:20.714Z,99.90
2022-11-01T15:30:53.344Z,99.90
2022-11-01T15:33:24.232Z,99.90
2022-11-01T15:35:55.365Z,99.90
2022-11-01T15:38:23.400Z,99.90
2022-11-01T15:40:50.535Z,99.90
2022-11-01T15:43:18.572Z,99.90
2022-11-01T15:45:46.876Z,99.90
2022-11-01T15:48:17.310Z,99.90
2022-11-01T15:50:48.688Z,99.90
2022-11-01T15:53:19.016Z,99.90
2022-11-01T15:55:47.352Z,99.90
2022-11-01T15:58:13.973Z,99.90
2022-11-01T16:00:51.242Z,99.90
2022-11-01T16:03:27.407Z,99.90
2022-11-01T16:05:58.520Z,99.90
2022-11-01T16:08:38.219Z,99.90
2022-11-01T16:11:05.178Z,99.90
2022-11-01T16:13:33.327Z,99.90
2022-11-01T16:16:04.819Z,99.90
2022-11-01T16:18:35.597Z,99.90
2022-11-01T16:21:22.116Z,99.90
2022-11-01T16:24:04.010Z,99.90
2022-11-01T16:26:33.534Z,99.90
2022-11-01T16:29:00.214Z,99.90
2022-11-01T16:31:32.748Z,99.90
2022-11-01T16:33:59.466Z,99.90
2022-11-01T16:36:32.410Z,99.90
2022-11-01T16:38:59.163Z,99.90
2022-11-01T16:41:37.898Z,99.90
2022-11-01T16:44:14.771Z,99.90
2022-11-01T16:46:41.514Z,99.90
2022-11-01T16:49:13.946Z,99.90
2022-11-01T16:51:40.877Z,99.90
2022-11-01T16:54:10.463Z,99.90
2022-11-01T16:56:39.387Z,99.90
2022-11-01T16:59:16.464Z,99.90
2022-11-01T17:01:45.151Z,99.90
2022-11-01T17:04:13.062Z,99.90
2022-11-01T17:06:39.704Z,99.90
2022-11-01T17:09:11.567Z,99.90
2022-11-01T17:11:38.226Z,99.90
2022-11-01T17:14:04.913Z,99.90
2022-11-01T17:16:31.571Z,99.90
2022-11-01T17:18:59.975Z,99.90
2022-11-01T17:21:29.000Z,99.90
2022-11-01T17:23:55.736Z,99.90
2022-11-01T17:26:23.794Z,99.90
2022-11-01T17:28:52.467Z,99.90
2022-11-01T17:31:19.345Z,99.90
2022-11-01T17:33:46.072Z,99.90
2022-11-01T17:36:14.279Z,99.90
2022-11-01T17:38:41.226Z,99.90
2022-11-01T17:41:09.379Z,99.90
2022-11-01T17:43:36.017Z,99.90
2022-11-01T17:46:03.290Z,99.90
2022-11-01T17:48:29.948Z,99.90
2022-11-01T17:51:00.096Z,99.90
2022-11-01T17:53:26.746Z,99.90
2022-11-01T17:55:57.470Z,99.90
2022-11-01T17:58:24.210Z,99.90
2022-11-01T18:00:51.123Z,99.90
2022-11-01T18:03:17.730Z,99.90
2022-11-01T18:05:44.394Z,99.90
2022-11-01T18:08:21.649Z,99.90
2022-11-01T18:11:05.389Z,99.90
2022-11-01T18:13:46.476Z,99.90
2022-11-01T18:16:20.379Z,99.90
2022-11-01T18:19:00.527Z,99.90
2022-11-01T18:21:30.151Z,99.90
2022-11-01T18:23:57.258Z,99.90
2022-11-01T18:26:24.591Z,99.90
2022-11-01T18:28:54.077Z,99.90
2022-11-01T18:31:50.076Z,99.90
2022-11-01T18:34:21.298Z,99.90
2022-11-01T18:36:52.633Z,99.90
2022-11-01T18:39:19.297Z,99.90
2022-11-01T18:41:46.322Z,99.90
2022-11-01T18:44:13.663Z,99.90
2022-11-01T18:46:50.013Z,99.90
2022-11-01T18:49:16.704Z,99.90
2022-11-01T18:51:44.473Z,99.90
2022-11-01T18:54:11.330Z,99.90
2022-11-01T18:56:42.983Z,99.90
2022-11-01T18:59:13.215Z,99.90
2022-11-01T19:01:40.882Z,99.90
2022-11-01T19:04:17.334Z,99.90
2022-11-01T19:06:44.601Z,99.90
2022-11-01T19:09:20.119Z,99.90
2022-11-01T19:11:46.835Z,99.90
2022-11-01T19:14:18.244Z,99.90
2022-11-01T19:16:45.654Z,99.90
2022-11-01T19:19:16.990Z,99.90
2022-11-01T19:21:43.712Z,99.90
2022-11-01T19:24:34.454Z,99.90
2022-11-01T19:27:01.271Z,99.90
2022-11-01T19:29:31.081Z,99.90
2022-11-01T19:31:59.104Z,99.90
2022-11-01T19:34:27.799Z,99.90
2022-11-01T19:36:55.044Z,99.90
2022-11-01T19:39:29.241Z,99.90
2022-11-01T19:41:58.769Z,99.90
2022-11-01T19:44:25.770Z,99.90
2022-11-01T19:47:16.241Z,99.90
2022-11-01T19:49:43.285Z,99.90
2022-11-01T19:52:09.971Z,99.90
2022-11-01T19:54:37.693Z,99.90
2022-11-01T19:59:57.146Z,99.90
2022-11-01T20:02:23.979Z,99.90
2022-11-01T20:04:56.296Z,99.90
2022-11-01T20:07:26.911Z,99.90
2022-11-01T20:09:58.455Z,99.90
2022-11-01T20:12:25.603Z,99.90
2022-11-01T20:14:52.320Z,99.90
2022-11-01T20:17:18.960Z,99.90
2022-11-01T20:19:45.618Z,99.90
2022-11-01T20:22:12.395Z,99.90
2022-11-01T20:24:39.012Z,99.90
2022-11-01T20:27:05.762Z,99.90
2022-11-01T20:29:32.473Z,99.90
2022-11-01T20:31:59.134Z,99.90
2022-11-01T20:34:27.266Z,99.90
2022-11-01T20:37:27.436Z,99.90
2022-11-01T20:39:40.786Z,99.90
2022-11-01T20:42:08.077Z,99.90
2022-11-01T20:44:34.771Z,99.90
2022-11-01T20:47:01.422Z,99.90
2022-11-01T20:49:28.159Z,99.90
2022-11-01T20:51:57.764Z,99.90
2022-11-01T20:54:31.264Z,99.90
2022-11-01T20:56:57.889Z,99.90
2022-11-01T20:59:24.614Z,99.90
2022-11-01T21:01:51.310Z,99.90
2022-11-01T21:04:19.291Z,99.90
2022-11-01T21:06:46.245Z,99.90
2022-11-01T21:09:51.794Z,99.90
2022-11-01T21:12:41.330Z,99.90
2022-11-01T21:15:26.193Z,99.90
2022-11-01T21:17:57.263Z,99.90
2022-11-01T21:20:24.967Z,99.90
2022-11-01T21:22:54.534Z,99.90
2022-11-01T21:25:22.531Z,99.90
2022-11-01T21:27:50.272Z,99.90
2022-11-01T21:30:18.693Z,99.90
2022-11-01T21:32:46.157Z,99.90
2022-11-01T21:35:35.802Z,99.90
2022-11-01T21:38:07.467Z,99.90
2022-11-01T21:40:34.097Z,99.90
2022-11-01T21:43:00.864Z,99.90
2022-11-01T21:45:29.648Z,99.90
2022-11-01T21:48:00.965Z,99.90
2022-11-01T21:50:28.130Z,99.90
2022-11-01T21:52:54.823Z,99.90
2022-11-01T21:55:21.605Z,99.90
2022-11-01T21:57:51.284Z,99.90
2022-11-01T22:00:18.018Z,99.90
2022-11-01T22:02:44.790Z,99.90
2022-11-01T22:05:11.548Z,99.90
2022-11-01T22:07:38.212Z,99.90
2022-11-01T22:10:05.165Z,99.90
2022-11-01T22:12:32.128Z,99.90
2022-11-01T22:14:58.761Z,99.90
2022-11-01T22:17:25.473Z,99.90
2022-11-01T22:19:52.109Z,99.90
2022-11-01T22:22:18.738Z,99.90
2022-11-01T22:24:45.383Z,99.90
2022-11-01T22:27:11.994Z,99.90
2022-11-01T22:29:38.652Z,99.90
2022-11-01T22:32:07.878Z,99.90
2022-11-01T22:34:34.457Z,99.90
2022-11-01T22:37:01.098Z,99.90
2022-11-01T22:39:29.572Z,99.90
2022-11-01T22:41:56.258Z,99.90
2022-11-01T22:44:32.230Z,99.90
2022-11-01T22:46:59.902Z,99.90
2022-11-01T22:49:28.203Z,99.90
2022-11-01T22:51:59.785Z,99.90
2022-11-01T22:54:29.292Z,99.90
2022-11-01T22:57:07.035Z,99.90
2022-11-01T22:59:34.397Z,99.90
2022-11-01T23:02:18.897Z,99.90
2022-11-01T23:04:45.674Z,99.90
2022-11-01T23:07:35.599Z,99.90
2022-11-01T23:10:26.145Z,99.90
2022-11-01T23:13:16.454Z,99.90
2022-11-01T23:15:43.115Z,99.90
2022-11-01T23:18:17.873Z,99.90
2022-11-01T23:20:45.565Z,99.90
2022-11-01T23:23:18.008Z,99.90
2022-11-01T23:25:44.798Z,99.90
2022-11-01T23:28:11.783Z,99.90
2022-11-01T23:30:38.792Z,99.90
2022-11-01T23:33:08.362Z,99.90
2022-11-01T23:35:35.513Z,99.90
2022-11-01T23:38:02.153Z,99.90
2022-11-01T23:40:31.544Z,99.90
2022-11-01T23:42:58.197Z,99.90
2022-11-01T23:45:42.949Z,99.90
2022-11-01T23:48:09.733Z,99.90
2022-11-01T23:50:37.011Z,99.90
2022-11-01T23:53:09.728Z,99.90
2022-11-01T23:55:38.440Z,99.90
2022-11-01T23:58:11.832Z,99.90
